sensor_id;sensor_type;location;lat;lon;timestamp;temperature;humidity
15564;DHT22;7883;52.554;13.364;2023-06-10T00:01:46;17.50;99.90
15564;DHT22;7883;52.554;13.364;2023-06-10T00:04:15;17.70;99.90
15564;DHT22;7883;52.554;13.364;2023-06-10T00:06:43;17.40;99.90
15564;DHT22;7883;52.554;13.364;2023-06-10T00:09:11;17.50;99.90
15564;DHT22;7883;52.554;13.364;2023-06-10T00:11:39;17.60;99.90
15564;DHT22;7883;52.554;13.364;2023-06-10T00:14:06;17.60;99.90
15564;DHT22;7883;52.554;13.364;2023-06-10T00:16:34;17.60;99.90
15564;DHT22;7883;52.554;13.364;2023-06-10T00:19:03;17.60;99.90
15564;DHT22;7883;52.554;13.364;2023-06-10T00:21:32;17.70;99.90
15564;DHT22;7883;52.554;13.364;2023-06-10T00:24:03;17.60;99.90
15564;DHT22;7883;52.554;13.364;2023-06-10T00:26:30;17.60;99.90
15564;DHT22;7883;52.554;13.364;2023-06-10T00:28:58;17.60;99.90
15564;DHT22;7883;52.554;13.364;2023-06-10T00:31:25;17.40;99.90
15564;DHT22;7883;52.554;13.364;2023-06-10T00:33:52;17.40;99.90
15564;DHT22;7883;52.554;13.364;2023-06-10T00:36:21;17.30;99.90
15564;DHT22;7883;52.554;13.364;2023-06-10T00:38:49;17.40;99.90
15564;DHT22;7883;52.554;13.364;2023-06-10T00:41:16;17.30;99.90
15564;DHT22;7883;52.554;13.364;2023-06-10T00:43:43;17.20;99.90
15564;DHT22;7883;52.554;13.364;2023-06-10T00:46:11;17.20;99.90
15564;DHT22;7883;52.554;13.364;2023-06-10T00:48:39;17.30;99.90
15564;DHT22;7883;52.554;13.364;2023-06-10T00:51:06;17.30;99.90
15564;DHT22;7883;52.554;13.364;2023-06-10T00:53:35;17.20;99.90
15564;DHT22;7883;52.554;13.364;2023-06-10T00:56:04;17.30;99.90
15564;DHT22;7883;52.554;13.364;2023-06-10T00:58:32;17.30;99.90
15564;DHT22;7883;52.554;13.364;2023-06-10T01:00:59;17.20;99.90
15564;DHT22;7883;52.554;13.364;2023-06-10T01:03:27;17.30;99.90
15564;DHT22;7883;52.554;13.364;2023-06-10T01:06:06;17.30;99.90
15564;DHT22;7883;52.554;13.364;2023-06-10T01:08:40;17.40;99.90
15564;DHT22;7883;52.554;13.364;2023-06-10T01:11:17;17.40;99.90
15564;DHT22;7883;52.554;13.364;2023-06-10T01:13:48;17.30;99.90
15564;DHT22;7883;52.554;13.364;2023-06-10T01:16:18;17.10;99.90
15564;DHT22;7883;52.554;13.364;2023-06-10T01:18:45;17.00;99.90
15564;DHT22;7883;52.554;13.364;2023-06-10T01:21:19;17.10;99.90
15564;DHT22;7883;52.554;13.364;2023-06-10T01:23:46;17.00;99.90
15564;DHT22;7883;52.554;13.364;2023-06-10T01:26:14;16.90;99.90
15564;DHT22;7883;52.554;13.364;2023-06-10T01:28:48;17.00;99.90
15564;DHT22;7883;52.554;13.364;2023-06-10T01:31:27;17.00;99.90
15564;DHT22;7883;52.554;13.364;2023-06-10T01:34:00;16.90;99.90
15564;DHT22;7883;52.554;13.364;2023-06-10T01:36:29;16.80;99.90
15564;DHT22;7883;52.554;13.364;2023-06-10T01:38:59;16.60;99.90
15564;DHT22;7883;52.554;13.364;2023-06-10T01:41:27;16.80;99.90
15564;DHT22;7883;52.554;13.364;2023-06-10T01:43:55;16.90;99.90
15564;DHT22;7883;52.554;13.364;2023-06-10T01:46:22;16.80;99.90
15564;DHT22;7883;52.554;13.364;2023-06-10T01:48:49;16.90;99.90
15564;DHT22;7883;52.554;13.364;2023-06-10T01:51:16;16.60;99.90
15564;DHT22;7883;52.554;13.364;2023-06-10T01:53:47;16.50;99.90
15564;DHT22;7883;52.554;13.364;2023-06-10T01:56:14;16.50;99.90
15564;DHT22;7883;52.554;13.364;2023-06-10T01:58:44;16.60;99.90
15564;DHT22;7883;52.554;13.364;2023-06-10T02:01:11;16.40;99.90
15564;DHT22;7883;52.554;13.364;2023-06-10T02:03:38;16.30;99.90
15564;DHT22;7883;52.554;13.364;2023-06-10T02:06:05;16.50;99.90
15564;DHT22;7883;52.554;13.364;2023-06-10T02:08:32;16.50;99.90
15564;DHT22;7883;52.554;13.364;2023-06-10T02:11:00;16.60;99.90
15564;DHT22;7883;52.554;13.364;2023-06-10T02:13:27;16.60;99.90
15564;DHT22;7883;52.554;13.364;2023-06-10T02:15:54;16.50;99.90
15564;DHT22;7883;52.554;13.364;2023-06-10T02:18:21;16.60;99.90
15564;DHT22;7883;52.554;13.364;2023-06-10T02:20:48;16.50;99.90
15564;DHT22;7883;52.554;13.364;2023-06-10T02:23:15;16.50;99.90
15564;DHT22;7883;52.554;13.364;2023-06-10T02:25:42;16.50;99.90
15564;DHT22;7883;52.554;13.364;2023-06-10T02:28:10;16.50;99.90
15564;DHT22;7883;52.554;13.364;2023-06-10T02:30:39;16.60;99.90
15564;DHT22;7883;52.554;13.364;2023-06-10T02:33:06;16.30;99.90
15564;DHT22;7883;52.554;13.364;2023-06-10T02:35:35;16.10;99.90
15564;DHT22;7883;52.554;13.364;2023-06-10T02:38:02;16.10;99.90
15564;DHT22;7883;52.554;13.364;2023-06-10T02:40:29;16.20;99.90
15564;DHT22;7883;52.554;13.364;2023-06-10T02:42:56;16.40;99.90
15564;DHT22;7883;52.554;13.364;2023-06-10T02:45:25;16.30;99.90
15564;DHT22;7883;52.554;13.364;2023-06-10T02:47:52;16.20;99.90
15564;DHT22;7883;52.554;13.364;2023-06-10T02:50:19;16.00;99.90
15564;DHT22;7883;52.554;13.364;2023-06-10T02:52:46;16.10;99.90
15564;DHT22;7883;52.554;13.364;2023-06-10T02:55:13;16.00;99.90
15564;DHT22;7883;52.554;13.364;2023-06-10T02:57:40;15.90;99.90
15564;DHT22;7883;52.554;13.364;2023-06-10T03:00:08;16.00;99.90
15564;DHT22;7883;52.554;13.364;2023-06-10T03:02:37;16.10;99.90
15564;DHT22;7883;52.554;13.364;2023-06-10T03:05:05;16.30;99.90
15564;DHT22;7883;52.554;13.364;2023-06-10T03:07:35;16.20;99.90
15564;DHT22;7883;52.554;13.364;2023-06-10T03:10:03;16.10;99.90
15564;DHT22;7883;52.554;13.364;2023-06-10T03:12:30;16.30;99.90
15564;DHT22;7883;52.554;13.364;2023-06-10T03:14:56;16.20;99.90
15564;DHT22;7883;52.554;13.364;2023-06-10T03:17:27;16.30;99.90
15564;DHT22;7883;52.554;13.364;2023-06-10T03:19:55;16.20;99.90
15564;DHT22;7883;52.554;13.364;2023-06-10T03:22:22;16.10;99.90
15564;DHT22;7883;52.554;13.364;2023-06-10T03:24:49;16.00;99.90
15564;DHT22;7883;52.554;13.364;2023-06-10T03:27:16;16.10;99.90
15564;DHT22;7883;52.554;13.364;2023-06-10T03:29:43;16.20;99.90
15564;DHT22;7883;52.554;13.364;2023-06-10T03:32:10;16.10;99.90
15564;DHT22;7883;52.554;13.364;2023-06-10T03:34:37;16.10;99.90
15564;DHT22;7883;52.554;13.364;2023-06-10T03:37:06;16.30;99.90
15564;DHT22;7883;52.554;13.364;2023-06-10T03:39:33;16.40;99.90
15564;DHT22;7883;52.554;13.364;2023-06-10T03:42:00;16.40;99.90
15564;DHT22;7883;52.554;13.364;2023-06-10T03:44:27;16.50;99.90
15564;DHT22;7883;52.554;13.364;2023-06-10T03:46:54;16.50;99.90
15564;DHT22;7883;52.554;13.364;2023-06-10T03:49:21;16.50;99.90
15564;DHT22;7883;52.554;13.364;2023-06-10T03:51:52;16.50;99.90
15564;DHT22;7883;52.554;13.364;2023-06-10T03:54:21;16.40;99.90
15564;DHT22;7883;52.554;13.364;2023-06-10T03:56:48;16.30;99.90
15564;DHT22;7883;52.554;13.364;2023-06-10T03:59:15;16.40;99.90
15564;DHT22;7883;52.554;13.364;2023-06-10T04:01:41;16.40;99.90
15564;DHT22;7883;52.554;13.364;2023-06-10T04:04:09;16.30;99.90
15564;DHT22;7883;52.554;13.364;2023-06-10T04:06:36;16.40;99.90
15564;DHT22;7883;52.554;13.364;2023-06-10T04:09:03;16.40;99.90
15564;DHT22;7883;52.554;13.364;2023-06-10T04:11:32;16.50;99.90
15564;DHT22;7883;52.554;13.364;2023-06-10T04:13:59;16.50;99.90
15564;DHT22;7883;52.554;13.364;2023-06-10T04:16:26;16.50;99.90
15564;DHT22;7883;52.554;13.364;2023-06-10T04:18:53;16.60;99.90
15564;DHT22;7883;52.554;13.364;2023-06-10T04:21:21;16.60;99.90
15564;DHT22;7883;52.554;13.364;2023-06-10T04:23:48;16.50;99.90
15564;DHT22;7883;52.554;13.364;2023-06-10T04:26:15;16.60;99.90
15564;DHT22;7883;52.554;13.364;2023-06-10T04:28:46;16.40;99.90
15564;DHT22;7883;52.554;13.364;2023-06-10T04:31:13;16.30;99.90
15564;DHT22;7883;52.554;13.364;2023-06-10T04:33:40;16.10;99.90
15564;DHT22;7883;52.554;13.364;2023-06-10T04:36:07;16.40;99.90
15564;DHT22;7883;52.554;13.364;2023-06-10T04:38:35;16.70;99.90
15564;DHT22;7883;52.554;13.364;2023-06-10T04:41:02;16.50;99.90
15564;DHT22;7883;52.554;13.364;2023-06-10T04:43:29;16.60;99.90
15564;DHT22;7883;52.554;13.364;2023-06-10T04:45:58;16.60;99.90
15564;DHT22;7883;52.554;13.364;2023-06-10T04:48:25;16.60;99.90
15564;DHT22;7883;52.554;13.364;2023-06-10T04:50:52;16.60;99.90
15564;DHT22;7883;52.554;13.364;2023-06-10T04:53:19;16.70;99.90
15564;DHT22;7883;52.554;13.364;2023-06-10T04:55:46;16.90;99.90
15564;DHT22;7883;52.554;13.364;2023-06-10T04:58:13;17.00;99.90
15564;DHT22;7883;52.554;13.364;2023-06-10T05:00:41;16.70;99.90
15564;DHT22;7883;52.554;13.364;2023-06-10T05:03:10;16.70;99.90
15564;DHT22;7883;52.554;13.364;2023-06-10T05:05:37;16.90;99.90
15564;DHT22;7883;52.554;13.364;2023-06-10T05:08:04;17.00;99.90
15564;DHT22;7883;52.554;13.364;2023-06-10T05:10:31;17.00;99.90
15564;DHT22;7883;52.554;13.364;2023-06-10T05:12:59;17.10;99.90
15564;DHT22;7883;52.554;13.364;2023-06-10T05:15:26;17.20;99.90
15564;DHT22;7883;52.554;13.364;2023-06-10T05:17:53;17.30;99.90
15564;DHT22;7883;52.554;13.364;2023-06-10T05:20:21;17.50;99.90
15564;DHT22;7883;52.554;13.364;2023-06-10T05:22:48;17.50;99.90
15564;DHT22;7883;52.554;13.364;2023-06-10T05:25:15;17.40;99.90
15564;DHT22;7883;52.554;13.364;2023-06-10T05:27:42;17.20;99.90
15564;DHT22;7883;52.554;13.364;2023-06-10T05:30:12;17.20;99.90
15564;DHT22;7883;52.554;13.364;2023-06-10T05:32:39;18.00;99.90
15564;DHT22;7883;52.554;13.364;2023-06-10T05:35:07;19.70;99.90
15564;DHT22;7883;52.554;13.364;2023-06-10T05:37:35;19.90;99.90
15564;DHT22;7883;52.554;13.364;2023-06-10T05:40:03;19.20;99.90
15564;DHT22;7883;52.554;13.364;2023-06-10T05:42:30;19.50;99.90
15564;DHT22;7883;52.554;13.364;2023-06-10T05:44:57;19.30;99.90
15564;DHT22;7883;52.554;13.364;2023-06-10T05:47:24;18.80;99.90
15564;DHT22;7883;52.554;13.364;2023-06-10T05:49:51;19.00;99.90
15564;DHT22;7883;52.554;13.364;2023-06-10T05:52:18;19.10;99.90
15564;DHT22;7883;52.554;13.364;2023-06-10T05:54:46;19.20;99.90
15564;DHT22;7883;52.554;13.364;2023-06-10T05:57:13;19.50;99.90
15564;DHT22;7883;52.554;13.364;2023-06-10T05:59:40;19.40;99.90
15564;DHT22;7883;52.554;13.364;2023-06-10T06:02:07;19.20;99.90
15564;DHT22;7883;52.554;13.364;2023-06-10T06:04:34;19.30;99.90
15564;DHT22;7883;52.554;13.364;2023-06-10T06:07:01;19.40;99.90
15564;DHT22;7883;52.554;13.364;2023-06-10T06:09:28;19.50;99.90
15564;DHT22;7883;52.554;13.364;2023-06-10T06:11:56;19.30;99.90
15564;DHT22;7883;52.554;13.364;2023-06-10T06:14:23;19.20;99.90
15564;DHT22;7883;52.554;13.364;2023-06-10T06:16:50;19.40;99.90
15564;DHT22;7883;52.554;13.364;2023-06-10T06:19:17;19.30;99.90
15564;DHT22;7883;52.554;13.364;2023-06-10T06:21:44;19.40;99.90
15564;DHT22;7883;52.554;13.364;2023-06-10T06:24:11;19.70;99.90
15564;DHT22;7883;52.554;13.364;2023-06-10T06:26:38;19.60;99.90
15564;DHT22;7883;52.554;13.364;2023-06-10T06:29:06;19.60;99.90
15564;DHT22;7883;52.554;13.364;2023-06-10T06:31:33;19.60;99.90
15564;DHT22;7883;52.554;13.364;2023-06-10T06:34:00;19.50;99.90
15564;DHT22;7883;52.554;13.364;2023-06-10T06:36:27;19.40;99.90
15564;DHT22;7883;52.554;13.364;2023-06-10T06:38:54;19.70;99.90
15564;DHT22;7883;52.554;13.364;2023-06-10T06:41:21;19.70;99.90
15564;DHT22;7883;52.554;13.364;2023-06-10T06:43:48;19.80;99.90
15564;DHT22;7883;52.554;13.364;2023-06-10T06:46:16;19.80;99.90
15564;DHT22;7883;52.554;13.364;2023-06-10T06:48:44;19.60;99.90
15564;DHT22;7883;52.554;13.364;2023-06-10T06:51:11;19.70;99.90
15564;DHT22;7883;52.554;13.364;2023-06-10T06:53:39;19.90;99.90
15564;DHT22;7883;52.554;13.364;2023-06-10T06:56:09;19.90;99.90
15564;DHT22;7883;52.554;13.364;2023-06-10T06:58:36;20.10;99.90
15564;DHT22;7883;52.554;13.364;2023-06-10T07:01:03;20.10;99.90
15564;DHT22;7883;52.554;13.364;2023-06-10T07:03:32;20.20;99.90
15564;DHT22;7883;52.554;13.364;2023-06-10T07:05:58;20.10;99.90
15564;DHT22;7883;52.554;13.364;2023-06-10T07:08:28;20.30;99.90
15564;DHT22;7883;52.554;13.364;2023-06-10T07:10:55;20.50;99.90
15564;DHT22;7883;52.554;13.364;2023-06-10T07:13:22;20.70;99.90
15564;DHT22;7883;52.554;13.364;2023-06-10T07:15:49;20.80;99.90
15564;DHT22;7883;52.554;13.364;2023-06-10T07:18:16;20.80;99.90
15564;DHT22;7883;52.554;13.364;2023-06-10T07:20:44;21.00;99.90
15564;DHT22;7883;52.554;13.364;2023-06-10T07:23:11;20.70;99.90
15564;DHT22;7883;52.554;13.364;2023-06-10T07:25:38;20.70;99.90
15564;DHT22;7883;52.554;13.364;2023-06-10T07:28:05;20.80;99.90
15564;DHT22;7883;52.554;13.364;2023-06-10T07:30:32;20.70;99.90
15564;DHT22;7883;52.554;13.364;2023-06-10T07:32:59;21.00;99.90
15564;DHT22;7883;52.554;13.364;2023-06-10T07:35:27;21.10;99.90
15564;DHT22;7883;52.554;13.364;2023-06-10T07:37:55;21.20;99.90
15564;DHT22;7883;52.554;13.364;2023-06-10T07:40:23;21.40;99.90
15564;DHT22;7883;52.554;13.364;2023-06-10T07:42:50;21.30;99.90
15564;DHT22;7883;52.554;13.364;2023-06-10T07:45:18;21.40;99.90
15564;DHT22;7883;52.554;13.364;2023-06-10T07:47:45;21.50;99.90
15564;DHT22;7883;52.554;13.364;2023-06-10T07:50:13;21.70;99.90
15564;DHT22;7883;52.554;13.364;2023-06-10T07:52:40;22.10;99.90
15564;DHT22;7883;52.554;13.364;2023-06-10T07:55:08;22.10;99.90
15564;DHT22;7883;52.554;13.364;2023-06-10T07:57:36;22.20;99.90
15564;DHT22;7883;52.554;13.364;2023-06-10T08:00:05;22.20;99.90
15564;DHT22;7883;52.554;13.364;2023-06-10T08:02:32;22.00;99.90
15564;DHT22;7883;52.554;13.364;2023-06-10T08:04:59;21.90;99.90
15564;DHT22;7883;52.554;13.364;2023-06-10T08:07:26;22.10;99.90
15564;DHT22;7883;52.554;13.364;2023-06-10T08:09:53;22.30;99.90
15564;DHT22;7883;52.554;13.364;2023-06-10T08:12:21;22.10;99.90
15564;DHT22;7883;52.554;13.364;2023-06-10T08:14:48;22.00;99.90
15564;DHT22;7883;52.554;13.364;2023-06-10T08:17:15;22.10;99.90
15564;DHT22;7883;52.554;13.364;2023-06-10T08:19:42;22.20;99.90
15564;DHT22;7883;52.554;13.364;2023-06-10T08:22:09;22.40;99.90
15564;DHT22;7883;52.554;13.364;2023-06-10T08:24:36;22.40;99.90
15564;DHT22;7883;52.554;13.364;2023-06-10T08:27:03;22.20;99.90
15564;DHT22;7883;52.554;13.364;2023-06-10T08:29:32;22.50;99.90
15564;DHT22;7883;52.554;13.364;2023-06-10T08:32:00;22.50;99.90
15564;DHT22;7883;52.554;13.364;2023-06-10T08:34:27;22.60;99.90
15564;DHT22;7883;52.554;13.364;2023-06-10T08:36:54;22.50;99.90
15564;DHT22;7883;52.554;13.364;2023-06-10T08:39:21;22.40;99.90
15564;DHT22;7883;52.554;13.364;2023-06-10T08:41:58;22.50;99.90
15564;DHT22;7883;52.554;13.364;2023-06-10T08:44:28;22.70;99.90
15564;DHT22;7883;52.554;13.364;2023-06-10T08:46:59;22.60;99.90
15564;DHT22;7883;52.554;13.364;2023-06-10T08:49:28;22.60;99.90
15564;DHT22;7883;52.554;13.364;2023-06-10T08:51:59;22.60;99.90
15564;DHT22;7883;52.554;13.364;2023-06-10T08:54:32;22.60;99.90
15564;DHT22;7883;52.554;13.364;2023-06-10T08:57:02;22.40;99.90
15564;DHT22;7883;52.554;13.364;2023-06-10T08:59:31;22.00;99.90
15564;DHT22;7883;52.554;13.364;2023-06-10T09:02:00;21.80;99.90
15564;DHT22;7883;52.554;13.364;2023-06-10T09:04:27;21.90;99.90
15564;DHT22;7883;52.554;13.364;2023-06-10T09:06:56;22.10;99.90
15564;DHT22;7883;52.554;13.364;2023-06-10T09:09:23;21.90;99.90
15564;DHT22;7883;52.554;13.364;2023-06-10T09:11:52;21.80;99.90
15564;DHT22;7883;52.554;13.364;2023-06-10T09:14:18;21.70;99.90
15564;DHT22;7883;52.554;13.364;2023-06-10T09:16:45;21.70;99.90
15564;DHT22;7883;52.554;13.364;2023-06-10T09:19:16;21.60;99.90
15564;DHT22;7883;52.554;13.364;2023-06-10T09:21:43;21.50;99.90
15564;DHT22;7883;52.554;13.364;2023-06-10T09:24:10;21.50;99.90
15564;DHT22;7883;52.554;13.364;2023-06-10T09:26:37;21.50;99.90
15564;DHT22;7883;52.554;13.364;2023-06-10T09:29:04;21.60;99.90
15564;DHT22;7883;52.554;13.364;2023-06-10T09:34:55;21.30;99.90
15564;DHT22;7883;52.554;13.364;2023-06-10T09:37:23;21.10;99.90
15564;DHT22;7883;52.554;13.364;2023-06-10T09:40:02;21.10;99.90
15564;DHT22;7883;52.554;13.364;2023-06-10T09:42:32;21.30;99.90
15564;DHT22;7883;52.554;13.364;2023-06-10T09:44:59;21.20;99.90
15564;DHT22;7883;52.554;13.364;2023-06-10T09:47:27;20.80;99.90
15564;DHT22;7883;52.554;13.364;2023-06-10T09:49:55;21.00;99.90
15564;DHT22;7883;52.554;13.364;2023-06-10T09:52:22;21.10;99.90
15564;DHT22;7883;52.554;13.364;2023-06-10T09:54:51;21.10;99.90
15564;DHT22;7883;52.554;13.364;2023-06-10T09:57:19;21.20;99.90
15564;DHT22;7883;52.554;13.364;2023-06-10T09:59:46;21.20;99.90
15564;DHT22;7883;52.554;13.364;2023-06-10T10:02:17;21.30;99.90
15564;DHT22;7883;52.554;13.364;2023-06-10T10:04:44;21.40;99.90
15564;DHT22;7883;52.554;13.364;2023-06-10T10:07:14;21.60;99.90
15564;DHT22;7883;52.554;13.364;2023-06-10T10:09:42;21.60;99.90
15564;DHT22;7883;52.554;13.364;2023-06-10T10:12:10;21.60;99.90
15564;DHT22;7883;52.554;13.364;2023-06-10T10:14:39;21.50;99.90
15564;DHT22;7883;52.554;13.364;2023-06-10T10:17:09;21.40;99.90
15564;DHT22;7883;52.554;13.364;2023-06-10T10:19:42;21.40;99.90
15564;DHT22;7883;52.554;13.364;2023-06-10T10:22:19;21.40;99.90
15564;DHT22;7883;52.554;13.364;2023-06-10T10:24:50;21.50;99.90
15564;DHT22;7883;52.554;13.364;2023-06-10T10:27:18;21.60;99.90
15564;DHT22;7883;52.554;13.364;2023-06-10T10:29:48;21.70;99.90
15564;DHT22;7883;52.554;13.364;2023-06-10T10:32:18;21.90;99.90
15564;DHT22;7883;52.554;13.364;2023-06-10T10:34:50;21.80;99.90
15564;DHT22;7883;52.554;13.364;2023-06-10T10:37:21;21.80;99.90
15564;DHT22;7883;52.554;13.364;2023-06-10T10:39:48;21.80;99.90
15564;DHT22;7883;52.554;13.364;2023-06-10T10:42:16;21.70;99.90
15564;DHT22;7883;52.554;13.364;2023-06-10T10:44:44;21.80;99.90
15564;DHT22;7883;52.554;13.364;2023-06-10T10:47:12;21.70;99.90
15564;DHT22;7883;52.554;13.364;2023-06-10T10:49:43;21.70;99.90
15564;DHT22;7883;52.554;13.364;2023-06-10T10:52:12;21.80;99.90
15564;DHT22;7883;52.554;13.364;2023-06-10T10:54:44;21.70;99.90
15564;DHT22;7883;52.554;13.364;2023-06-10T10:57:16;21.80;99.90
15564;DHT22;7883;52.554;13.364;2023-06-10T10:59:54;21.90;99.90
15564;DHT22;7883;52.554;13.364;2023-06-10T11:02:36;21.80;99.90
15564;DHT22;7883;52.554;13.364;2023-06-10T11:05:06;21.90;99.90
15564;DHT22;7883;52.554;13.364;2023-06-10T11:07:34;22.00;99.90
15564;DHT22;7883;52.554;13.364;2023-06-10T11:10:06;22.00;99.90
15564;DHT22;7883;52.554;13.364;2023-06-10T11:12:50;22.20;99.90
15564;DHT22;7883;52.554;13.364;2023-06-10T11:15:19;22.30;99.90
15564;DHT22;7883;52.554;13.364;2023-06-10T11:20:54;22.50;99.90
15564;DHT22;7883;52.554;13.364;2023-06-10T11:23:41;22.60;99.90
15564;DHT22;7883;52.554;13.364;2023-06-10T11:26:18;22.60;99.90
15564;DHT22;7883;52.554;13.364;2023-06-10T11:29:07;22.70;99.90
15564;DHT22;7883;52.554;13.364;2023-06-10T11:31:41;22.70;99.90
15564;DHT22;7883;52.554;13.364;2023-06-10T11:34:08;22.70;99.90
15564;DHT22;7883;52.554;13.364;2023-06-10T11:36:38;22.70;99.90
15564;DHT22;7883;52.554;13.364;2023-06-10T11:39:08;22.80;99.90
15564;DHT22;7883;52.554;13.364;2023-06-10T11:41:40;22.70;99.90
15564;DHT22;7883;52.554;13.364;2023-06-10T11:44:11;22.60;99.90
15564;DHT22;7883;52.554;13.364;2023-06-10T11:46:40;22.70;99.90
15564;DHT22;7883;52.554;13.364;2023-06-10T11:49:08;22.80;99.90
15564;DHT22;7883;52.554;13.364;2023-06-10T11:51:36;23.10;99.90
15564;DHT22;7883;52.554;13.364;2023-06-10T11:54:05;23.20;99.90
15564;DHT22;7883;52.554;13.364;2023-06-10T11:56:32;23.20;99.90
15564;DHT22;7883;52.554;13.364;2023-06-10T11:59:02;23.30;99.90
15564;DHT22;7883;52.554;13.364;2023-06-10T12:01:30;23.50;99.90
15564;DHT22;7883;52.554;13.364;2023-06-10T12:04:02;23.50;99.90
15564;DHT22;7883;52.554;13.364;2023-06-10T12:06:38;23.30;99.90
15564;DHT22;7883;52.554;13.364;2023-06-10T12:09:05;23.50;99.90
15564;DHT22;7883;52.554;13.364;2023-06-10T12:11:32;23.70;99.90
15564;DHT22;7883;52.554;13.364;2023-06-10T12:14:00;23.70;99.90
15564;DHT22;7883;52.554;13.364;2023-06-10T12:16:29;23.80;99.90
15564;DHT22;7883;52.554;13.364;2023-06-10T12:19:01;24.00;99.90
15564;DHT22;7883;52.554;13.364;2023-06-10T12:21:29;23.90;99.90
15564;DHT22;7883;52.554;13.364;2023-06-10T12:24:03;23.90;99.90
15564;DHT22;7883;52.554;13.364;2023-06-10T12:26:38;23.90;99.90
15564;DHT22;7883;52.554;13.364;2023-06-10T12:29:23;24.00;99.90
15564;DHT22;7883;52.554;13.364;2023-06-10T12:31:55;24.10;99.90
15564;DHT22;7883;52.554;13.364;2023-06-10T12:34:29;24.30;99.90
15564;DHT22;7883;52.554;13.364;2023-06-10T12:36:56;24.50;99.90
15564;DHT22;7883;52.554;13.364;2023-06-10T12:39:25;24.60;99.90
15564;DHT22;7883;52.554;13.364;2023-06-10T12:41:52;24.80;99.90
15564;DHT22;7883;52.554;13.364;2023-06-10T12:44:30;24.80;99.90
15564;DHT22;7883;52.554;13.364;2023-06-10T12:46:57;24.90;99.90
15564;DHT22;7883;52.554;13.364;2023-06-10T12:49:24;25.10;99.90
15564;DHT22;7883;52.554;13.364;2023-06-10T12:51:53;25.10;99.90
15564;DHT22;7883;52.554;13.364;2023-06-10T12:54:21;25.20;99.90
15564;DHT22;7883;52.554;13.364;2023-06-10T12:56:48;25.30;99.90
15564;DHT22;7883;52.554;13.364;2023-06-10T12:59:15;25.40;99.90
15564;DHT22;7883;52.554;13.364;2023-06-10T13:01:43;25.40;99.90
15564;DHT22;7883;52.554;13.364;2023-06-10T13:04:11;25.40;99.90
15564;DHT22;7883;52.554;13.364;2023-06-10T13:06:38;25.50;99.90
15564;DHT22;7883;52.554;13.364;2023-06-10T13:09:08;25.50;99.90
15564;DHT22;7883;52.554;13.364;2023-06-10T13:11:36;25.60;99.90
15564;DHT22;7883;52.554;13.364;2023-06-10T13:14:03;25.70;99.90
15564;DHT22;7883;52.554;13.364;2023-06-10T13:16:32;25.70;99.90
15564;DHT22;7883;52.554;13.364;2023-06-10T13:19:00;25.80;99.90
15564;DHT22;7883;52.554;13.364;2023-06-10T13:21:28;25.90;99.90
15564;DHT22;7883;52.554;13.364;2023-06-10T13:23:55;26.00;99.90
15564;DHT22;7883;52.554;13.364;2023-06-10T13:26:22;25.90;99.90
15564;DHT22;7883;52.554;13.364;2023-06-10T13:28:49;25.90;99.90
15564;DHT22;7883;52.554;13.364;2023-06-10T13:31:16;25.90;99.90
15564;DHT22;7883;52.554;13.364;2023-06-10T13:33:43;26.00;99.90
15564;DHT22;7883;52.554;13.364;2023-06-10T13:36:14;25.90;99.90
15564;DHT22;7883;52.554;13.364;2023-06-10T13:38:40;25.90;99.90
15564;DHT22;7883;52.554;13.364;2023-06-10T13:41:07;25.80;99.90
15564;DHT22;7883;52.554;13.364;2023-06-10T13:43:35;26.00;99.90
15564;DHT22;7883;52.554;13.364;2023-06-10T13:46:02;26.00;99.90
15564;DHT22;7883;52.554;13.364;2023-06-10T13:48:29;26.20;99.90
15564;DHT22;7883;52.554;13.364;2023-06-10T13:50:56;26.10;99.90
15564;DHT22;7883;52.554;13.364;2023-06-10T13:53:26;26.20;99.90
15564;DHT22;7883;52.554;13.364;2023-06-10T13:55:53;26.30;99.90
15564;DHT22;7883;52.554;13.364;2023-06-10T13:58:20;26.30;99.90
15564;DHT22;7883;52.554;13.364;2023-06-10T14:00:49;26.50;99.90
15564;DHT22;7883;52.554;13.364;2023-06-10T14:03:16;26.50;99.90
15564;DHT22;7883;52.554;13.364;2023-06-10T14:05:43;26.50;99.90
15564;DHT22;7883;52.554;13.364;2023-06-10T14:08:11;26.50;99.90
15564;DHT22;7883;52.554;13.364;2023-06-10T14:10:40;26.30;99.90
15564;DHT22;7883;52.554;13.364;2023-06-10T14:13:07;26.20;99.90
15564;DHT22;7883;52.554;13.364;2023-06-10T14:15:37;26.10;99.90
15564;DHT22;7883;52.554;13.364;2023-06-10T14:18:06;26.10;99.90
15564;DHT22;7883;52.554;13.364;2023-06-10T14:20:32;26.20;99.90
15564;DHT22;7883;52.554;13.364;2023-06-10T14:22:59;26.20;99.90
15564;DHT22;7883;52.554;13.364;2023-06-10T14:25:27;26.30;99.90
15564;DHT22;7883;52.554;13.364;2023-06-10T14:27:55;26.30;99.90
15564;DHT22;7883;52.554;13.364;2023-06-10T14:30:23;26.30;99.90
15564;DHT22;7883;52.554;13.364;2023-06-10T14:32:52;26.20;99.90
15564;DHT22;7883;52.554;13.364;2023-06-10T14:35:22;26.20;99.90
15564;DHT22;7883;52.554;13.364;2023-06-10T14:37:49;26.30;99.90
15564;DHT22;7883;52.554;13.364;2023-06-10T14:40:17;26.30;99.90
15564;DHT22;7883;52.554;13.364;2023-06-10T14:42:46;26.30;99.90
15564;DHT22;7883;52.554;13.364;2023-06-10T14:45:15;26.40;99.90
15564;DHT22;7883;52.554;13.364;2023-06-10T14:47:42;26.50;99.90
15564;DHT22;7883;52.554;13.364;2023-06-10T14:50:10;26.40;99.90
15564;DHT22;7883;52.554;13.364;2023-06-10T14:52:37;26.50;99.90
15564;DHT22;7883;52.554;13.364;2023-06-10T14:55:05;26.50;99.90
15564;DHT22;7883;52.554;13.364;2023-06-10T14:57:32;26.50;99.90
15564;DHT22;7883;52.554;13.364;2023-06-10T15:00:00;26.50;99.90
15564;DHT22;7883;52.554;13.364;2023-06-10T15:02:29;26.60;99.90
15564;DHT22;7883;52.554;13.364;2023-06-10T15:04:56;26.60;99.90
15564;DHT22;7883;52.554;13.364;2023-06-10T15:07:23;26.60;99.90
15564;DHT22;7883;52.554;13.364;2023-06-10T15:09:51;26.70;99.90
15564;DHT22;7883;52.554;13.364;2023-06-10T15:12:18;26.70;99.90
15564;DHT22;7883;52.554;13.364;2023-06-10T15:14:46;26.70;99.90
15564;DHT22;7883;52.554;13.364;2023-06-10T15:17:13;26.70;99.90
15564;DHT22;7883;52.554;13.364;2023-06-10T15:19:42;26.70;99.90
15564;DHT22;7883;52.554;13.364;2023-06-10T15:22:09;26.80;99.90
15564;DHT22;7883;52.554;13.364;2023-06-10T15:24:37;26.80;99.90
15564;DHT22;7883;52.554;13.364;2023-06-10T15:27:05;26.80;99.90
15564;DHT22;7883;52.554;13.364;2023-06-10T15:29:32;26.80;99.90
15564;DHT22;7883;52.554;13.364;2023-06-10T15:32:00;26.90;99.90
15564;DHT22;7883;52.554;13.364;2023-06-10T15:34:28;26.90;99.90
15564;DHT22;7883;52.554;13.364;2023-06-10T15:37:00;26.90;99.90
15564;DHT22;7883;52.554;13.364;2023-06-10T15:39:27;26.90;99.90
15564;DHT22;7883;52.554;13.364;2023-06-10T15:41:56;26.90;99.90
15564;DHT22;7883;52.554;13.364;2023-06-10T15:44:23;26.80;99.90